KFMY/FMY METAR and TAF weather

Enter ICAO airport designator
Station Type Date Time Source
KFMY METAR 2021/05/12 04:53 UTC NOAA

KFMY 120453Z AUTO 07003KT 10SM OVC080 26/21 A3005 RMK AO2 SLP178 T02610211 403390217


Station Type Date Time Source
KFMY Decoded METAR 2021/05/12 04:53 UTC NOAA

FORT MYERS PAGE FIELD, FL, United States (KFMY) 26-35N 081-52W 4M
May 12, 2021 - 12:53 AM EDT / 2021.05.12 0453 UTC
Wind: from the ENE (070 degrees) at 3 MPH (3 KT):0
Visibility: 10 mile(s):0
Sky conditions: overcast
Temperature: 79.0 F (26.1 C)
Dew Point: 70.0 F (21.1 C)
Relative Humidity: 73%
Pressure (altimeter): 30.05 in. Hg (1017 hPa)
ob: KFMY 120453Z AUTO 07003KT 10SM OVC080 26/21 A3005 RMK AO2 SLP178 T02610211 403390217
cycle: 5

Station Type Date Time Source
KFMY TAF 2021/05/11 18:27 UTC NOAA

TAF KFMY 111725Z 1118/1218 25007KT P6SM SCT040 BKN250
FM112100 26011KT P6SM VCSH SCT030 BKN250
FM120000 28007KT P6SM FEW030 SCT250
FM120200 VRB03KT P6SM SCT250
FM121500 21006KT P6SM FEW030 SCT250

Example: see airport list